createdAt,value
2019-04-16T00:00:32.127Z,22.94
2019-04-16T00:03:05.422Z,22.94
2019-04-16T00:05:38.833Z,22.91
2019-04-16T00:08:26.483Z,22.87
2019-04-16T00:10:47.167Z,22.85
2019-04-16T00:13:20.477Z,22.88
2019-04-16T00:15:55.496Z,22.85
2019-04-16T00:18:28.807Z,22.80
2019-04-16T00:21:02.143Z,22.79
2019-04-16T00:23:37.083Z,22.84
2019-04-16T00:26:10.499Z,22.75
2019-04-16T00:28:43.807Z,22.71
2019-04-16T00:31:17.200Z,22.70
2019-04-16T00:33:50.518Z,22.74
2019-04-16T00:36:25.398Z,22.70
2019-04-16T00:38:58.722Z,22.66
2019-04-16T00:41:32.116Z,22.64
2019-04-16T00:44:05.769Z,22.73
2019-04-16T00:46:39.552Z,22.64
2019-04-16T00:49:12.870Z,22.62
2019-04-16T00:51:46.266Z,22.59
2019-04-16T00:54:19.586Z,22.70
2019-04-16T00:56:53.086Z,22.59
2019-04-16T00:59:26.409Z,22.57
2019-04-16T01:01:59.800Z,22.54
2019-04-16T01:04:33.104Z,22.67
2019-04-16T01:07:06.446Z,22.57
2019-04-16T01:09:39.815Z,22.53
2019-04-16T01:12:13.262Z,22.50
2019-04-16T01:14:46.779Z,22.67
2019-04-16T01:17:20.279Z,22.53
2019-04-16T01:19:53.573Z,22.49
2019-04-16T01:22:27.331Z,22.45
2019-04-16T01:25:00.814Z,22.64
2019-04-16T01:27:34.430Z,22.51
2019-04-16T01:30:08.978Z,22.54
2019-04-16T01:32:43.294Z,22.42
2019-04-16T01:35:19.119Z,22.64
2019-04-16T01:37:56.519Z,22.46
2019-04-16T01:40:26.747Z,22.38
2019-04-16T01:43:00.119Z,22.36
2019-04-16T01:45:33.601Z,22.60
2019-04-16T01:48:08.202Z,22.43
2019-04-16T01:50:43.726Z,22.58
2019-04-16T01:53:18.402Z,22.39
2019-04-16T01:55:56.733Z,22.68
2019-04-16T01:58:27.295Z,22.45
2019-04-16T02:01:01.717Z,22.35
2019-04-16T02:03:35.061Z,22.31
2019-04-16T02:06:08.612Z,22.27
2019-04-16T02:08:41.924Z,22.25
2019-04-16T02:11:15.257Z,22.23
2019-04-16T02:13:48.701Z,22.19
2019-04-16T02:16:22.363Z,22.19
2019-04-16T02:19:00.803Z,22.15
2019-04-16T02:21:32.094Z,22.50
2019-04-16T02:24:05.483Z,22.27
2019-04-16T02:26:38.782Z,22.20
2019-04-16T02:29:12.356Z,22.15
2019-04-16T02:31:47.926Z,22.12
2019-04-16T02:34:20.870Z,22.25
2019-04-16T02:37:00.307Z,22.12
2019-04-16T02:39:46.956Z,22.10
2019-04-16T02:42:04.727Z,22.05
2019-04-16T02:44:38.326Z,22.20
2019-04-16T02:47:11.810Z,22.10
2019-04-16T02:49:45.223Z,22.03
2019-04-16T02:52:18.594Z,22.03
2019-04-16T02:54:52.022Z,22.23
2019-04-16T02:57:26.561Z,22.07
2019-04-16T03:00:01.368Z,22.00
2019-04-16T03:02:34.880Z,21.97
2019-04-16T03:05:08.218Z,22.26
2019-04-16T03:07:41.813Z,22.06
2019-04-16T03:10:15.157Z,22.02
2019-04-16T03:12:51.880Z,21.98
2019-04-16T03:15:23.952Z,22.28
2019-04-16T03:17:57.286Z,22.06
2019-04-16T03:20:30.686Z,21.99
2019-04-16T03:23:05.897Z,21.93
2019-04-16T03:25:41.376Z,21.90
2019-04-16T03:28:14.396Z,21.88
2019-04-16T03:30:48.910Z,22.22
2019-04-16T03:33:22.425Z,22.13
2019-04-16T03:35:57.835Z,22.06
2019-04-16T03:38:31.074Z,22.04
2019-04-16T03:41:04.777Z,22.06
2019-04-16T03:43:38.107Z,22.14
2019-04-16T03:46:13.084Z,22.25
2019-04-16T03:48:46.608Z,22.57
2019-04-16T03:51:19.977Z,22.55
2019-04-16T03:53:53.302Z,22.61
2019-04-16T03:56:27.592Z,22.67
2019-04-16T03:59:01.812Z,23.15
2019-04-16T04:01:35.166Z,23.01
2019-04-16T04:04:08.488Z,23.64
2019-04-16T04:06:41.830Z,23.51
2019-04-16T04:09:15.139Z,24.06
2019-04-16T04:11:48.475Z,23.93
2019-04-16T04:14:23.456Z,23.91
2019-04-16T04:16:57.469Z,23.92
2019-04-16T04:19:30.988Z,23.94
2019-04-16T04:22:04.383Z,24.00
2019-04-16T04:24:37.688Z,24.02
2019-04-16T04:27:13.957Z,24.18
2019-04-16T04:29:46.561Z,24.10
2019-04-16T04:32:20.234Z,24.38
2019-04-16T04:34:53.817Z,24.21
2019-04-16T04:37:30.979Z,24.41
2019-04-16T04:40:02.566Z,24.25
2019-04-16T04:42:36.249Z,24.17
2019-04-16T04:45:10.221Z,24.10
2019-04-16T04:47:44.458Z,24.06
2019-04-16T04:50:17.749Z,24.02
2019-04-16T04:52:51.248Z,24.01
2019-04-16T04:55:26.842Z,23.99
2019-04-16T04:58:02.502Z,23.91
2019-04-16T05:00:37.459Z,23.94
2019-04-16T05:03:12.482Z,23.88
2019-04-16T05:05:44.944Z,23.81
2019-04-16T05:08:18.266Z,23.79
2019-04-16T05:10:58.954Z,23.84
2019-04-16T05:13:27.111Z,23.78
2019-04-16T05:16:01.892Z,23.75
2019-04-16T05:18:35.487Z,23.77
2019-04-16T05:21:08.801Z,23.73
2019-04-16T05:23:42.275Z,23.69
2019-04-16T05:26:15.583Z,23.64
2019-04-16T05:28:48.975Z,23.54
2019-04-16T05:31:25.637Z,23.89
2019-04-16T05:34:02.088Z,23.69
2019-04-16T05:36:32.542Z,23.75
2019-04-16T05:39:07.484Z,23.52
2019-04-16T05:41:41.785Z,23.45
2019-04-16T05:44:15.094Z,23.41
2019-04-16T05:46:48.451Z,23.36
2019-04-16T05:49:24.631Z,23.33
2019-04-16T05:51:56.843Z,23.31
2019-04-16T05:54:30.461Z,23.33
2019-04-16T05:57:03.886Z,23.38
2019-04-16T05:59:37.592Z,23.55
2019-04-16T06:02:11.364Z,23.49
2019-04-16T06:04:44.785Z,23.45
2019-04-16T06:07:17.997Z,23.64
2019-04-16T06:09:52.346Z,23.64
2019-04-16T06:12:26.008Z,23.56
2019-04-16T06:14:59.317Z,23.57
2019-04-16T06:17:33.931Z,23.50
2019-04-16T06:20:07.302Z,23.58
2019-04-16T06:22:40.673Z,23.49
2019-04-16T06:25:14.337Z,23.73
2019-04-16T06:27:47.762Z,23.59
2019-04-16T06:30:21.435Z,23.56
2019-04-16T06:32:54.930Z,23.53
2019-04-16T06:35:42.252Z,23.77
2019-04-16T06:38:03.878Z,23.65
2019-04-16T06:40:38.695Z,23.58
2019-04-16T06:43:12.301Z,23.55
2019-04-16T06:45:46.961Z,23.50
2019-04-16T06:48:20.448Z,23.64
2019-04-16T06:50:54.449Z,23.57
2019-04-16T06:53:30.685Z,23.55
2019-04-16T06:56:05.488Z,23.58
2019-04-16T06:58:50.986Z,23.63
2019-04-16T07:01:14.623Z,23.54
2019-04-16T07:03:48.258Z,23.79
2019-04-16T07:06:21.827Z,23.76
2019-04-16T07:08:56.429Z,23.82
2019-04-16T07:11:29.906Z,23.76
2019-04-16T07:14:03.655Z,24.14
2019-04-16T07:16:36.990Z,23.96
2019-04-16T07:19:11.596Z,23.88
2019-04-16T07:21:48.694Z,23.77
2019-04-16T07:24:23.163Z,23.75
2019-04-16T07:26:57.455Z,23.94
2019-04-16T07:29:32.676Z,23.90
2019-04-16T07:32:06.115Z,24.04
2019-04-16T07:34:39.656Z,24.07
2019-04-16T07:37:13.125Z,24.23
2019-04-16T07:39:46.688Z,23.94
2019-04-16T07:42:22.231Z,23.93
2019-04-16T07:44:55.946Z,24.09
2019-04-16T07:47:29.564Z,24.08
2019-04-16T07:50:04.275Z,24.07
2019-04-16T07:52:39.050Z,24.32
2019-04-16T07:55:13.416Z,24.21
2019-04-16T07:57:47.017Z,24.52
2019-04-16T08:00:21.348Z,24.32
2019-04-16T08:02:56.338Z,24.59
2019-04-16T08:05:29.763Z,24.39
2019-04-16T08:08:03.589Z,24.34
2019-04-16T08:10:41.298Z,24.34
2019-04-16T08:13:15.096Z,24.24
2019-04-16T08:15:48.752Z,24.23
2019-04-16T08:18:22.172Z,24.27
2019-04-16T08:21:01.920Z,24.31
2019-04-16T08:23:31.112Z,24.24
2019-04-16T08:26:08.239Z,24.25
2019-04-16T08:28:39.545Z,24.44
2019-04-16T08:31:13.331Z,24.44
2019-04-16T08:33:46.789Z,24.32
2019-04-16T08:36:20.193Z,24.58
2019-04-16T08:38:53.556Z,24.43
2019-04-16T08:41:26.693Z,24.40
2019-04-16T08:44:03.779Z,24.41
2019-04-16T08:46:35.224Z,24.73
2019-04-16T08:49:08.661Z,24.53
2019-04-16T08:51:41.965Z,24.75
2019-04-16T08:54:18.201Z,24.54
2019-04-16T08:56:50.743Z,24.54
2019-04-16T08:59:24.103Z,24.50
2019-04-16T09:01:58.233Z,24.84
2019-04-16T09:04:34.534Z,24.73
2019-04-16T09:07:12.608Z,24.65
2019-04-16T09:09:41.725Z,24.63
2019-04-16T09:12:15.148Z,24.60
2019-04-16T09:14:48.451Z,24.73
2019-04-16T09:17:21.758Z,24.64
2019-04-16T09:19:55.349Z,24.55
2019-04-16T09:22:28.758Z,24.51
2019-04-16T09:25:02.114Z,24.80
2019-04-16T09:27:35.503Z,24.67
2019-04-16T09:30:16.356Z,24.56
2019-04-16T09:32:45.191Z,24.55
2019-04-16T09:35:20.425Z,24.56
2019-04-16T09:37:54.055Z,24.51
2019-04-16T09:40:27.612Z,24.76
2019-04-16T09:43:01.015Z,24.62
2019-04-16T09:45:37.161Z,24.99
2019-04-16T09:48:09.470Z,24.75
2019-04-16T09:50:46.347Z,24.68
2019-04-16T09:53:17.935Z,24.68
2019-04-16T09:55:51.365Z,24.62
2019-04-16T09:58:24.890Z,24.58
2019-04-16T10:00:58.326Z,24.55
2019-04-16T10:03:31.696Z,24.46
2019-04-16T10:06:05.649Z,24.44
2019-04-16T10:08:44.331Z,24.45
2019-04-16T10:11:14.462Z,24.54
2019-04-16T10:13:47.831Z,24.58
2019-04-16T10:16:22.528Z,24.60
2019-04-16T10:18:56.001Z,24.64
2019-04-16T10:21:29.416Z,24.60
2019-04-16T10:24:02.893Z,24.53
2019-04-16T10:26:36.408Z,24.51
2019-04-16T10:29:09.745Z,24.43
2019-04-16T10:31:43.084Z,24.51
2019-04-16T10:34:16.401Z,24.46
2019-04-16T10:36:49.866Z,24.47
2019-04-16T10:39:23.209Z,24.34
2019-04-16T10:41:56.742Z,24.37
2019-04-16T10:44:30.041Z,24.44
2019-04-16T10:47:03.356Z,24.40
2019-04-16T10:49:36.693Z,24.47
2019-04-16T10:52:10.204Z,24.45
2019-04-16T10:54:43.750Z,24.43
2019-04-16T10:57:17.297Z,24.43
2019-04-16T10:59:50.705Z,24.71
2019-04-16T11:02:24.020Z,24.58
2019-04-16T11:04:57.356Z,24.56
2019-04-16T11:07:30.922Z,24.42
2019-04-16T11:10:05.656Z,24.74
2019-04-16T11:12:39.005Z,24.61
2019-04-16T11:15:12.393Z,24.57
2019-04-16T11:17:45.710Z,24.53
2019-04-16T11:20:19.075Z,24.51
2019-04-16T11:22:52.500Z,24.70
2019-04-16T11:25:25.905Z,24.57
2019-04-16T11:27:59.411Z,24.39
2019-04-16T11:30:33.023Z,24.42
2019-04-16T11:33:06.520Z,24.70
2019-04-16T11:35:41.486Z,24.50
2019-04-16T11:38:17.736Z,24.60
2019-04-16T11:40:51.233Z,24.48
2019-04-16T11:43:24.603Z,24.80
2019-04-16T11:45:58.049Z,24.52
2019-04-16T11:48:37.169Z,24.74
2019-04-16T11:51:08.063Z,24.64
2019-04-16T11:53:41.414Z,24.55
2019-04-16T11:56:14.852Z,24.51
2019-04-16T11:58:48.153Z,24.49
2019-04-16T12:01:23.185Z,24.52
2019-04-16T12:03:56.753Z,24.46
2019-04-16T12:06:31.789Z,24.39
2019-04-16T12:09:09.758Z,24.50
2019-04-16T12:11:43.371Z,24.55
2019-04-16T12:14:29.621Z,24.56
2019-04-16T12:16:51.919Z,24.52
2019-04-16T12:19:25.338Z,24.53
2019-04-16T12:22:00.248Z,24.55
2019-04-16T12:24:34.673Z,24.57
2019-04-16T12:27:09.602Z,24.53
2019-04-16T12:29:42.917Z,24.80
2019-04-16T12:32:16.264Z,24.70
2019-04-16T12:34:51.344Z,24.68
2019-04-16T12:37:24.917Z,24.74
2019-04-16T12:39:58.460Z,24.75
2019-04-16T12:42:31.900Z,24.77
2019-04-16T12:45:08.608Z,24.82
2019-04-16T12:47:43.545Z,24.85
2019-04-16T12:50:18.502Z,25.17
2019-04-16T12:52:55.019Z,25.14
2019-04-16T12:55:31.347Z,25.07
2019-04-16T12:58:02.098Z,25.11
2019-04-16T13:00:35.544Z,25.15
2019-04-16T13:03:08.975Z,25.18
2019-04-16T13:05:44.679Z,25.22
2019-04-16T13:08:18.340Z,25.27
2019-04-16T13:10:51.891Z,25.40
2019-04-16T13:13:25.429Z,25.56
2019-04-16T13:15:58.834Z,25.75
2019-04-16T13:18:32.187Z,26.00
2019-04-16T13:21:06.222Z,26.02
2019-04-16T13:23:39.847Z,26.02
2019-04-16T13:26:13.860Z,25.99
2019-04-16T13:28:47.282Z,25.91
2019-04-16T13:31:20.721Z,25.83
2019-04-16T13:33:54.108Z,25.77
2019-04-16T13:36:28.090Z,25.77
2019-04-16T13:39:01.786Z,25.83
2019-04-16T13:41:36.791Z,25.91
2019-04-16T13:44:10.622Z,25.92
2019-04-16T13:46:43.968Z,25.92
2019-04-16T13:49:17.385Z,25.87
2019-04-16T13:51:50.748Z,25.86
2019-04-16T13:54:27.747Z,25.81
2019-04-16T13:56:59.248Z,25.80
2019-04-16T13:59:32.618Z,25.80
2019-04-16T14:02:06.042Z,25.78
2019-04-16T14:04:39.410Z,25.89
2019-04-16T14:07:14.948Z,25.83
2019-04-16T14:09:50.613Z,25.79
2019-04-16T14:12:40.802Z,26.07
2019-04-16T14:14:59.463Z,25.90
2019-04-16T14:17:36.508Z,25.83
2019-04-16T14:20:12.632Z,25.31
2019-04-16T14:22:44.755Z,26.02
2019-04-16T14:25:18.211Z,25.90
2019-04-16T14:27:55.175Z,25.83
2019-04-16T14:30:27.478Z,25.78
2019-04-16T14:33:01.233Z,25.85
2019-04-16T14:35:34.613Z,25.74
2019-04-16T14:38:09.086Z,26.01
2019-04-16T14:40:43.122Z,25.87
2019-04-16T14:43:17.067Z,25.81
2019-04-16T14:45:58.016Z,25.76
2019-04-16T14:48:26.954Z,25.92
2019-04-16T14:51:00.548Z,25.31
2019-04-16T14:53:35.178Z,25.74
2019-04-16T14:56:08.510Z,26.00
2019-04-16T14:58:42.133Z,25.82
2019-04-16T15:01:15.941Z,25.78
2019-04-16T15:03:49.282Z,25.73
2019-04-16T15:06:22.794Z,25.88
2019-04-16T15:08:56.193Z,25.72
2019-04-16T15:11:29.579Z,25.99
2019-04-16T15:14:02.953Z,25.81
2019-04-16T15:16:36.285Z,25.74
2019-04-16T15:19:11.285Z,25.20
2019-04-16T15:21:44.914Z,25.69
2019-04-16T15:24:18.793Z,25.66
2019-04-16T15:26:53.449Z,25.67
2019-04-16T15:29:26.878Z,25.95
2019-04-16T15:32:04.062Z,25.78
2019-04-16T15:34:35.354Z,25.73
2019-04-16T15:37:08.725Z,25.70
2019-04-16T15:39:42.087Z,25.88
2019-04-16T15:42:17.422Z,25.70
2019-04-16T15:44:52.667Z,25.66
2019-04-16T15:47:25.746Z,25.62
2019-04-16T15:49:59.062Z,25.67
2019-04-16T15:52:32.404Z,25.60
2019-04-16T15:55:05.756Z,25.85
2019-04-16T15:57:39.630Z,25.70
2019-04-16T16:00:14.170Z,25.62
2019-04-16T16:02:47.665Z,25.57
2019-04-16T16:05:21.773Z,25.53
2019-04-16T16:07:56.610Z,25.50
2019-04-16T16:10:30.593Z,25.51
2019-04-16T16:13:04.179Z,25.50
2019-04-16T16:15:40.390Z,25.51
2019-04-16T16:18:13.661Z,25.50
2019-04-16T16:20:46.995Z,25.50
2019-04-16T16:23:20.396Z,24.98
2019-04-16T16:25:54.306Z,25.47
2019-04-16T16:28:28.116Z,25.70
2019-04-16T16:31:01.790Z,25.58
2019-04-16T16:33:35.316Z,25.54
2019-04-16T16:36:08.791Z,25.50
2019-04-16T16:38:41.936Z,25.65
2019-04-16T16:41:15.384Z,25.57
2019-04-16T16:43:48.766Z,25.52
2019-04-16T16:46:22.091Z,25.68
2019-04-16T16:48:55.792Z,25.54
2019-04-16T16:51:29.155Z,25.49
2019-04-16T16:54:02.468Z,25.47
2019-04-16T16:56:35.887Z,25.47
2019-04-16T16:59:09.858Z,25.44
2019-04-16T17:01:43.187Z,25.41
2019-04-16T17:04:16.888Z,25.37
2019-04-16T17:06:50.226Z,25.35
2019-04-16T17:09:27.100Z,25.33
2019-04-16T17:12:00.530Z,25.32
2019-04-16T17:14:37.536Z,25.33
2019-04-16T17:17:14.188Z,25.38
2019-04-16T17:19:44.418Z,25.38
2019-04-16T17:22:18.212Z,25.30
2019-04-16T17:24:51.748Z,25.27
2019-04-16T17:27:25.089Z,25.25
2019-04-16T17:29:58.402Z,25.23
2019-04-16T17:32:31.806Z,25.19
2019-04-16T17:35:07.589Z,25.17
2019-04-16T17:37:40.822Z,25.14
2019-04-16T17:40:16.290Z,25.14
2019-04-16T17:42:51.261Z,25.33
2019-04-16T17:45:25.501Z,25.22
2019-04-16T17:47:59.027Z,25.20
2019-04-16T17:50:32.474Z,25.20
2019-04-16T17:53:05.907Z,25.22
2019-04-16T17:55:39.372Z,25.19
2019-04-16T17:58:12.828Z,25.19
2019-04-16T18:00:46.690Z,25.18
2019-04-16T18:03:20.325Z,25.13
2019-04-16T18:05:53.932Z,25.41
2019-04-16T18:08:27.421Z,25.26
2019-04-16T18:11:01.040Z,25.25
2019-04-16T18:13:34.544Z,25.25
2019-04-16T18:16:08.192Z,25.33
2019-04-16T18:18:41.537Z,25.27
2019-04-16T18:21:16.631Z,25.22
2019-04-16T18:23:51.078Z,25.23
2019-04-16T18:26:24.319Z,25.21
2019-04-16T18:29:01.482Z,25.49
2019-04-16T18:31:34.671Z,25.35
2019-04-16T18:34:10.060Z,25.31
2019-04-16T18:36:43.935Z,25.30
2019-04-16T18:39:18.268Z,25.27
2019-04-16T18:41:51.892Z,25.26
2019-04-16T18:44:29.357Z,25.25
2019-04-16T18:47:06.423Z,25.21
2019-04-16T18:49:40.030Z,25.20
2019-04-16T18:52:14.529Z,25.20
2019-04-16T18:54:49.386Z,25.28
2019-04-16T18:57:23.260Z,25.07
2019-04-16T18:59:58.287Z,24.42
2019-04-16T19:02:31.596Z,24.93
2019-04-16T19:05:05.223Z,24.91
2019-04-16T19:07:38.757Z,24.89
2019-04-16T19:10:13.616Z,24.85
2019-04-16T19:12:47.173Z,24.99
2019-04-16T19:15:21.349Z,24.90
2019-04-16T19:17:55.345Z,24.89
2019-04-16T19:20:28.747Z,24.86
2019-04-16T19:23:02.077Z,24.83
2019-04-16T19:25:35.505Z,24.77
2019-04-16T19:28:08.849Z,24.73
2019-04-16T19:30:42.673Z,24.75
2019-04-16T19:33:16.362Z,24.71
2019-04-16T19:35:51.874Z,24.95
2019-04-16T19:38:24.925Z,24.80
2019-04-16T19:40:59.313Z,24.71
2019-04-16T19:43:35.338Z,24.61
2019-04-16T19:46:08.255Z,24.63
2019-04-16T19:48:43.612Z,24.63
2019-04-16T19:51:19.661Z,24.64
2019-04-16T19:53:53.155Z,24.62
2019-04-16T19:56:26.533Z,24.68
2019-04-16T19:59:00.690Z,24.67
2019-04-16T20:01:34.099Z,24.58
2019-04-16T20:04:10.778Z,24.49
2019-04-16T20:06:42.811Z,24.34
2019-04-16T20:09:16.255Z,24.30
2019-04-16T20:11:54.832Z,24.30
2019-04-16T20:14:24.712Z,24.25
2019-04-16T20:16:58.032Z,24.19
2019-04-16T20:19:31.542Z,24.16
2019-04-16T20:22:04.958Z,24.10
2019-04-16T20:24:38.469Z,24.07
2019-04-16T20:27:11.855Z,24.11
2019-04-16T20:29:45.211Z,24.02
2019-04-16T20:32:18.730Z,24.00
2019-04-16T20:34:52.105Z,24.01
2019-04-16T20:37:25.527Z,23.98
2019-04-16T20:39:58.992Z,23.91
2019-04-16T20:42:32.325Z,24.09
2019-04-16T20:45:07.001Z,23.93
2019-04-16T20:47:40.335Z,23.89
2019-04-16T20:50:13.666Z,23.86
2019-04-16T20:52:47.012Z,23.84
2019-04-16T20:55:20.322Z,23.84
2019-04-16T20:57:55.250Z,23.80
2019-04-16T21:00:28.834Z,23.81
2019-04-16T21:03:03.629Z,23.75
2019-04-16T21:05:37.445Z,23.74
2019-04-16T21:08:10.906Z,23.72
2019-04-16T21:10:44.246Z,23.73
2019-04-16T21:13:17.572Z,23.80
2019-04-16T21:15:50.917Z,23.76
2019-04-16T21:18:24.314Z,23.78
2019-04-16T21:20:57.782Z,23.93
2019-04-16T21:23:31.973Z,23.87
2019-04-16T21:26:06.238Z,24.13
2019-04-16T21:28:39.841Z,23.91
2019-04-16T21:31:13.677Z,24.02
2019-04-16T21:33:49.255Z,23.91
2019-04-16T21:36:22.516Z,24.19
2019-04-16T21:38:55.933Z,24.05
2019-04-16T21:41:29.658Z,23.94
2019-04-16T21:44:03.296Z,23.89
2019-04-16T21:46:36.702Z,23.87
2019-04-16T21:49:10.001Z,23.81
2019-04-16T21:51:43.386Z,23.79
2019-04-16T21:54:16.903Z,23.76
2019-04-16T21:56:50.144Z,23.98
2019-04-16T21:59:23.795Z,23.83
2019-04-16T22:01:58.219Z,23.78
2019-04-16T22:04:31.627Z,23.75
2019-04-16T22:07:07.432Z,23.97
2019-04-16T22:09:40.446Z,23.82
2019-04-16T22:12:15.544Z,23.76
2019-04-16T22:14:51.078Z,23.72
2019-04-16T22:17:24.319Z,23.72
2019-04-16T22:20:01.353Z,23.68
2019-04-16T22:22:32.923Z,23.58
2019-04-16T22:25:06.527Z,23.57
2019-04-16T22:27:40.456Z,23.51
2019-04-16T22:30:19.115Z,23.51
2019-04-16T22:32:49.308Z,23.60
2019-04-16T22:35:22.705Z,23.50
2019-04-16T22:37:56.221Z,23.50
2019-04-16T22:40:29.916Z,23.46
2019-04-16T22:43:06.204Z,23.52
2019-04-16T22:45:39.572Z,23.53
2019-04-16T22:48:13.268Z,23.52
2019-04-16T22:50:46.799Z,23.51
2019-04-16T22:53:20.137Z,23.53
2019-04-16T22:55:56.629Z,23.50
2019-04-16T22:58:28.719Z,23.76
2019-04-16T23:01:02.168Z,23.62
2019-04-16T23:03:35.571Z,23.56
2019-04-16T23:06:09.264Z,23.55
2019-04-16T23:08:43.576Z,23.54
2019-04-16T23:11:23.294Z,23.50
2019-04-16T23:13:53.202Z,23.49
2019-04-16T23:16:26.591Z,23.50
2019-04-16T23:18:59.963Z,23.48
2019-04-16T23:21:33.389Z,23.48
2019-04-16T23:26:39.446Z,23.48
2019-04-16T23:29:15.662Z,23.76
2019-04-16T23:31:48.145Z,23.61
2019-04-16T23:34:21.556Z,23.57
2019-04-16T23:36:55.283Z,23.51
2019-04-16T23:39:28.754Z,23.48
2019-04-16T23:42:02.223Z,23.47
2019-04-16T23:44:35.550Z,23.41
2019-04-16T23:47:11.048Z,23.40
2019-04-16T23:49:44.221Z,23.39
2019-04-16T23:52:17.515Z,23.36
2019-04-16T23:54:50.846Z,23.36
2019-04-16T23:57:25.755Z,23.34
2019-04-16T23:59:59.125Z,23.62
